sensor_id;sensor_type;location;lat;lon;timestamp;P1;durP1;ratioP1;P2;durP2;ratioP2
15281;SDS011;7742;44.320;19.820;2022-11-20T00:01:34;493.60;;;76.13;;
15281;SDS011;7742;44.320;19.820;2022-11-20T00:04:01;287.90;;;58.57;;
15281;SDS011;7742;44.320;19.820;2022-11-20T00:06:29;68.10;;;46.97;;
15281;SDS011;7742;44.320;19.820;2022-11-20T00:08:59;455.73;;;63.97;;
15281;SDS011;7742;44.320;19.820;2022-11-20T00:11:29;78.53;;;42.90;;
15281;SDS011;7742;44.320;19.820;2022-11-20T00:13:58;35.27;;;33.23;;
15281;SDS011;7742;44.320;19.820;2022-11-20T00:16:41;34.97;;;32.33;;
15281;SDS011;7742;44.320;19.820;2022-11-20T00:22:15;34.03;;;31.17;;
15281;SDS011;7742;44.320;19.820;2022-11-20T00:24:43;34.70;;;31.03;;
15281;SDS011;7742;44.320;19.820;2022-11-20T00:27:12;34.70;;;32.53;;
15281;SDS011;7742;44.320;19.820;2022-11-20T00:29:39;78.37;;;33.80;;
15281;SDS011;7742;44.320;19.820;2022-11-20T00:32:07;36.67;;;34.40;;
15281;SDS011;7742;44.320;19.820;2022-11-20T00:34:42;34.77;;;32.80;;
15281;SDS011;7742;44.320;19.820;2022-11-20T00:37:09;35.00;;;32.93;;
15281;SDS011;7742;44.320;19.820;2022-11-20T00:39:36;32.93;;;31.07;;
15281;SDS011;7742;44.320;19.820;2022-11-20T00:42:04;36.67;;;34.57;;
15281;SDS011;7742;44.320;19.820;2022-11-20T00:44:38;40.07;;;37.57;;
15281;SDS011;7742;44.320;19.820;2022-11-20T00:47:05;38.00;;;35.70;;
15281;SDS011;7742;44.320;19.820;2022-11-20T00:49:33;42.57;;;40.03;;
15281;SDS011;7742;44.320;19.820;2022-11-20T00:52:03;43.37;;;40.83;;
15281;SDS011;7742;44.320;19.820;2022-11-20T00:54:30;41.77;;;39.27;;
15281;SDS011;7742;44.320;19.820;2022-11-20T00:56:58;41.33;;;38.90;;
15281;SDS011;7742;44.320;19.820;2022-11-20T00:59:26;42.03;;;39.53;;
15281;SDS011;7742;44.320;19.820;2022-11-20T01:02:07;38.47;;;36.17;;
15281;SDS011;7742;44.320;19.820;2022-11-20T01:04:34;150.03;;;43.17;;
15281;SDS011;7742;44.320;19.820;2022-11-20T01:07:02;171.03;;;45.30;;
15281;SDS011;7742;44.320;19.820;2022-11-20T01:09:29;39.50;;;37.27;;
15281;SDS011;7742;44.320;19.820;2022-11-20T01:11:56;38.93;;;36.57;;
15281;SDS011;7742;44.320;19.820;2022-11-20T01:14:24;36.63;;;34.43;;
15281;SDS011;7742;44.320;19.820;2022-11-20T01:16:52;37.60;;;35.50;;
15281;SDS011;7742;44.320;19.820;2022-11-20T01:19:24;38.70;;;36.40;;
15281;SDS011;7742;44.320;19.820;2022-11-20T01:21:52;36.43;;;33.90;;
15281;SDS011;7742;44.320;19.820;2022-11-20T01:27:33;35.40;;;33.30;;
15281;SDS011;7742;44.320;19.820;2022-11-20T01:30:00;33.17;;;31.23;;
15281;SDS011;7742;44.320;19.820;2022-11-20T01:32:28;34.63;;;32.67;;
15281;SDS011;7742;44.320;19.820;2022-11-20T01:34:57;37.80;;;35.80;;
15281;SDS011;7742;44.320;19.820;2022-11-20T01:37:24;38.73;;;36.63;;
15281;SDS011;7742;44.320;19.820;2022-11-20T01:39:52;39.70;;;37.40;;
15281;SDS011;7742;44.320;19.820;2022-11-20T01:42:19;42.47;;;40.17;;
15281;SDS011;7742;44.320;19.820;2022-11-20T01:48:04;37.23;;;35.23;;
15281;SDS011;7742;44.320;19.820;2022-11-20T01:50:33;42.90;;;40.70;;
15281;SDS011;7742;44.320;19.820;2022-11-20T01:53:00;42.37;;;40.07;;
15281;SDS011;7742;44.320;19.820;2022-11-20T01:55:29;45.20;;;42.80;;
15281;SDS011;7742;44.320;19.820;2022-11-20T01:57:57;43.03;;;40.67;;
15281;SDS011;7742;44.320;19.820;2022-11-20T02:00:25;44.50;;;42.00;;
15281;SDS011;7742;44.320;19.820;2022-11-20T02:02:53;66.53;;;44.80;;
15281;SDS011;7742;44.320;19.820;2022-11-20T02:05:25;436.03;;;61.80;;
15281;SDS011;7742;44.320;19.820;2022-11-20T02:07:57;43.60;;;41.20;;
15281;SDS011;7742;44.320;19.820;2022-11-20T02:10:25;41.40;;;38.90;;
15281;SDS011;7742;44.320;19.820;2022-11-20T02:12:53;43.73;;;41.17;;
15281;SDS011;7742;44.320;19.820;2022-11-20T02:15:37;42.43;;;39.93;;
15281;SDS011;7742;44.320;19.820;2022-11-20T02:18:05;41.90;;;39.47;;
15281;SDS011;7742;44.320;19.820;2022-11-20T02:20:32;43.00;;;40.50;;
15281;SDS011;7742;44.320;19.820;2022-11-20T02:23:03;41.90;;;39.60;;
15281;SDS011;7742;44.320;19.820;2022-11-20T02:25:36;43.07;;;40.67;;
15281;SDS011;7742;44.320;19.820;2022-11-20T02:28:04;46.27;;;43.63;;
15281;SDS011;7742;44.320;19.820;2022-11-20T02:30:32;49.87;;;46.67;;
15281;SDS011;7742;44.320;19.820;2022-11-20T02:32:59;342.23;;;55.50;;
15281;SDS011;7742;44.320;19.820;2022-11-20T02:35:39;50.77;;;46.60;;
15281;SDS011;7742;44.320;19.820;2022-11-20T02:38:11;47.63;;;44.93;;
15281;SDS011;7742;44.320;19.820;2022-11-20T02:40:40;46.97;;;44.47;;
15281;SDS011;7742;44.320;19.820;2022-11-20T02:43:07;46.17;;;43.77;;
15281;SDS011;7742;44.320;19.820;2022-11-20T02:45:35;49.97;;;47.40;;
15281;SDS011;7742;44.320;19.820;2022-11-20T02:48:02;47.33;;;44.83;;
15281;SDS011;7742;44.320;19.820;2022-11-20T02:50:30;55.03;;;52.17;;
15281;SDS011;7742;44.320;19.820;2022-11-20T02:52:57;950.43;;;84.20;;
15281;SDS011;7742;44.320;19.820;2022-11-20T02:55:25;50.87;;;47.33;;
15281;SDS011;7742;44.320;19.820;2022-11-20T02:57:54;43.20;;;40.90;;
15281;SDS011;7742;44.320;19.820;2022-11-20T03:00:21;47.37;;;44.73;;
15281;SDS011;7742;44.320;19.820;2022-11-20T03:02:49;44.13;;;41.60;;
15281;SDS011;7742;44.320;19.820;2022-11-20T03:05:17;48.03;;;43.60;;
15281;SDS011;7742;44.320;19.820;2022-11-20T03:07:44;76.53;;;41.93;;
15281;SDS011;7742;44.320;19.820;2022-11-20T03:10:11;435.87;;;60.70;;
15281;SDS011;7742;44.320;19.820;2022-11-20T03:12:39;645.50;;;64.43;;
15281;SDS011;7742;44.320;19.820;2022-11-20T03:15:08;115.23;;;43.53;;
15281;SDS011;7742;44.320;19.820;2022-11-20T03:17:36;605.33;;;68.30;;
15281;SDS011;7742;44.320;19.820;2022-11-20T03:20:04;809.67;;;77.30;;
15281;SDS011;7742;44.320;19.820;2022-11-20T03:22:32;509.03;;;60.53;;
15281;SDS011;7742;44.320;19.820;2022-11-20T03:25:00;920.17;;;86.63;;
15281;SDS011;7742;44.320;19.820;2022-11-20T03:27:31;507.30;;;64.73;;
15281;SDS011;7742;44.320;19.820;2022-11-20T03:29:59;610.57;;;75.53;;
15281;SDS011;7742;44.320;19.820;2022-11-20T03:32:28;404.83;;;70.57;;
15281;SDS011;7742;44.320;19.820;2022-11-20T03:34:56;213.90;;;79.07;;
15281;SDS011;7742;44.320;19.820;2022-11-20T03:37:24;338.00;;;89.27;;
15281;SDS011;7742;44.320;19.820;2022-11-20T03:39:52;594.13;;;119.63;;
15281;SDS011;7742;44.320;19.820;2022-11-20T03:42:19;404.37;;;117.10;;
15281;SDS011;7742;44.320;19.820;2022-11-20T03:45:04;666.57;;;145.23;;
15281;SDS011;7742;44.320;19.820;2022-11-20T03:47:34;799.47;;;145.10;;
15281;SDS011;7742;44.320;19.820;2022-11-20T03:50:01;627.73;;;139.07;;
15281;SDS011;7742;44.320;19.820;2022-11-20T03:52:29;662.80;;;136.97;;
15281;SDS011;7742;44.320;19.820;2022-11-20T03:54:56;670.40;;;131.40;;
15281;SDS011;7742;44.320;19.820;2022-11-20T03:57:23;397.10;;;121.07;;
15281;SDS011;7742;44.320;19.820;2022-11-20T03:59:51;599.80;;;138.23;;
15281;SDS011;7742;44.320;19.820;2022-11-20T04:02:18;284.00;;;123.03;;
15281;SDS011;7742;44.320;19.820;2022-11-20T04:04:47;131.53;;;119.40;;
15281;SDS011;7742;44.320;19.820;2022-11-20T04:07:14;282.33;;;122.77;;
15281;SDS011;7742;44.320;19.820;2022-11-20T04:09:41;508.37;;;133.10;;
15281;SDS011;7742;44.320;19.820;2022-11-20T04:12:09;119.67;;;113.17;;
15281;SDS011;7742;44.320;19.820;2022-11-20T04:14:36;111.73;;;104.13;;
15281;SDS011;7742;44.320;19.820;2022-11-20T04:17:03;236.27;;;122.60;;
15281;SDS011;7742;44.320;19.820;2022-11-20T04:19:31;115.47;;;109.23;;
15281;SDS011;7742;44.320;19.820;2022-11-20T04:22:00;117.77;;;111.50;;
15281;SDS011;7742;44.320;19.820;2022-11-20T04:24:27;121.87;;;115.20;;
15281;SDS011;7742;44.320;19.820;2022-11-20T04:26:54;125.43;;;119.00;;
15281;SDS011;7742;44.320;19.820;2022-11-20T04:29:22;127.83;;;121.33;;
15281;SDS011;7742;44.320;19.820;2022-11-20T04:32:04;122.47;;;116.07;;
15281;SDS011;7742;44.320;19.820;2022-11-20T04:34:31;135.93;;;128.83;;
15281;SDS011;7742;44.320;19.820;2022-11-20T04:37:00;129.07;;;121.87;;
15281;SDS011;7742;44.320;19.820;2022-11-20T04:39:28;143.30;;;135.77;;
15281;SDS011;7742;44.320;19.820;2022-11-20T04:41:55;145.83;;;137.60;;
15281;SDS011;7742;44.320;19.820;2022-11-20T04:44:36;160.50;;;151.77;;
15281;SDS011;7742;44.320;19.820;2022-11-20T04:47:03;148.57;;;140.60;;
15281;SDS011;7742;44.320;19.820;2022-11-20T04:49:31;162.10;;;153.23;;
15281;SDS011;7742;44.320;19.820;2022-11-20T04:51:59;161.40;;;152.23;;
15281;SDS011;7742;44.320;19.820;2022-11-20T04:54:27;155.03;;;145.03;;
15281;SDS011;7742;44.320;19.820;2022-11-20T04:56:55;236.93;;;147.00;;
15281;SDS011;7742;44.320;19.820;2022-11-20T04:59:22;152.83;;;141.70;;
15281;SDS011;7742;44.320;19.820;2022-11-20T05:01:49;161.50;;;148.77;;
15281;SDS011;7742;44.320;19.820;2022-11-20T05:04:17;164.17;;;150.57;;
15281;SDS011;7742;44.320;19.820;2022-11-20T05:06:45;159.60;;;147.00;;
15281;SDS011;7742;44.320;19.820;2022-11-20T05:09:14;402.10;;;151.23;;
15281;SDS011;7742;44.320;19.820;2022-11-20T05:11:43;157.20;;;143.37;;
15281;SDS011;7742;44.320;19.820;2022-11-20T05:14:24;130.83;;;122.03;;
15281;SDS011;7742;44.320;19.820;2022-11-20T05:16:52;150.63;;;137.17;;
15281;SDS011;7742;44.320;19.820;2022-11-20T05:19:19;144.03;;;134.47;;
15281;SDS011;7742;44.320;19.820;2022-11-20T05:25:01;141.10;;;132.80;;
15281;SDS011;7742;44.320;19.820;2022-11-20T05:27:49;142.80;;;130.97;;
15281;SDS011;7742;44.320;19.820;2022-11-20T05:30:17;154.47;;;138.60;;
15281;SDS011;7742;44.320;19.820;2022-11-20T05:32:44;140.83;;;132.63;;
15281;SDS011;7742;44.320;19.820;2022-11-20T05:35:11;145.53;;;137.27;;
15281;SDS011;7742;44.320;19.820;2022-11-20T05:37:39;148.60;;;140.53;;
15281;SDS011;7742;44.320;19.820;2022-11-20T05:40:08;150.03;;;141.93;;
15281;SDS011;7742;44.320;19.820;2022-11-20T05:42:37;144.30;;;136.27;;
15281;SDS011;7742;44.320;19.820;2022-11-20T05:45:04;142.40;;;134.57;;
15281;SDS011;7742;44.320;19.820;2022-11-20T05:47:33;148.30;;;139.60;;
15281;SDS011;7742;44.320;19.820;2022-11-20T05:50:01;141.57;;;133.67;;
15281;SDS011;7742;44.320;19.820;2022-11-20T05:52:28;155.73;;;146.53;;
15281;SDS011;7742;44.320;19.820;2022-11-20T05:54:56;142.70;;;134.60;;
15281;SDS011;7742;44.320;19.820;2022-11-20T05:57:25;139.37;;;131.07;;
15281;SDS011;7742;44.320;19.820;2022-11-20T05:59:52;134.53;;;126.60;;
15281;SDS011;7742;44.320;19.820;2022-11-20T06:02:19;129.23;;;122.00;;
15281;SDS011;7742;44.320;19.820;2022-11-20T06:04:46;136.47;;;128.87;;
15281;SDS011;7742;44.320;19.820;2022-11-20T06:09:41;127.47;;;120.78;;
15281;SDS011;7742;44.320;19.820;2022-11-20T06:12:09;123.23;;;116.87;;
15281;SDS011;7742;44.320;19.820;2022-11-20T06:14:37;114.20;;;108.40;;
15281;SDS011;7742;44.320;19.820;2022-11-20T06:17:05;110.80;;;105.00;;
15281;SDS011;7742;44.320;19.820;2022-11-20T06:19:32;90.43;;;85.30;;
15281;SDS011;7742;44.320;19.820;2022-11-20T06:21:59;90.47;;;85.57;;
15281;SDS011;7742;44.320;19.820;2022-11-20T06:24:27;95.40;;;90.20;;
15281;SDS011;7742;44.320;19.820;2022-11-20T06:26:54;97.33;;;92.30;;
15281;SDS011;7742;44.320;19.820;2022-11-20T06:29:21;89.60;;;84.63;;
15281;SDS011;7742;44.320;19.820;2022-11-20T06:31:50;83.60;;;78.90;;
15281;SDS011;7742;44.320;19.820;2022-11-20T06:34:18;74.27;;;70.13;;
15281;SDS011;7742;44.320;19.820;2022-11-20T06:36:45;69.37;;;65.37;;
15281;SDS011;7742;44.320;19.820;2022-11-20T06:39:12;65.60;;;62.10;;
15281;SDS011;7742;44.320;19.820;2022-11-20T06:41:40;64.57;;;60.80;;
15281;SDS011;7742;44.320;19.820;2022-11-20T06:44:07;72.27;;;68.23;;
15281;SDS011;7742;44.320;19.820;2022-11-20T06:46:34;68.10;;;64.30;;
15281;SDS011;7742;44.320;19.820;2022-11-20T06:49:03;71.03;;;66.93;;
15281;SDS011;7742;44.320;19.820;2022-11-20T06:51:31;57.87;;;54.57;;
15281;SDS011;7742;44.320;19.820;2022-11-20T06:53:58;58.87;;;55.37;;
15281;SDS011;7742;44.320;19.820;2022-11-20T06:56:26;57.37;;;53.63;;
15281;SDS011;7742;44.320;19.820;2022-11-20T06:58:53;54.80;;;51.70;;
15281;SDS011;7742;44.320;19.820;2022-11-20T07:01:20;47.17;;;44.10;;
15281;SDS011;7742;44.320;19.820;2022-11-20T07:03:48;44.33;;;41.67;;
15281;SDS011;7742;44.320;19.820;2022-11-20T07:06:17;36.43;;;34.20;;
15281;SDS011;7742;44.320;19.820;2022-11-20T07:08:45;32.57;;;30.37;;
15281;SDS011;7742;44.320;19.820;2022-11-20T07:11:12;30.10;;;28.10;;
15281;SDS011;7742;44.320;19.820;2022-11-20T07:13:40;25.60;;;23.60;;
15281;SDS011;7742;44.320;19.820;2022-11-20T07:16:07;25.87;;;24.10;;
15281;SDS011;7742;44.320;19.820;2022-11-20T07:18:35;23.33;;;21.73;;
15281;SDS011;7742;44.320;19.820;2022-11-20T07:21:04;27.60;;;25.70;;
15281;SDS011;7742;44.320;19.820;2022-11-20T07:23:34;26.40;;;24.53;;
15281;SDS011;7742;44.320;19.820;2022-11-20T07:26:02;25.87;;;24.03;;
15281;SDS011;7742;44.320;19.820;2022-11-20T07:28:30;24.63;;;22.70;;
15281;SDS011;7742;44.320;19.820;2022-11-20T07:30:58;23.90;;;22.20;;
15281;SDS011;7742;44.320;19.820;2022-11-20T07:33:25;23.13;;;21.43;;
15281;SDS011;7742;44.320;19.820;2022-11-20T07:35:52;21.87;;;20.33;;
15281;SDS011;7742;44.320;19.820;2022-11-20T07:38:20;22.93;;;21.33;;
15281;SDS011;7742;44.320;19.820;2022-11-20T07:40:48;24.27;;;22.47;;
15281;SDS011;7742;44.320;19.820;2022-11-20T07:43:20;24.83;;;23.03;;
15281;SDS011;7742;44.320;19.820;2022-11-20T07:45:48;25.50;;;23.50;;
15281;SDS011;7742;44.320;19.820;2022-11-20T07:48:15;23.60;;;21.83;;
15281;SDS011;7742;44.320;19.820;2022-11-20T07:50:42;23.13;;;21.43;;
15281;SDS011;7742;44.320;19.820;2022-11-20T07:53:10;22.27;;;20.57;;
15281;SDS011;7742;44.320;19.820;2022-11-20T07:55:39;23.33;;;21.43;;
15281;SDS011;7742;44.320;19.820;2022-11-20T07:58:08;22.33;;;20.63;;
15281;SDS011;7742;44.320;19.820;2022-11-20T08:00:35;23.70;;;21.77;;
15281;SDS011;7742;44.320;19.820;2022-11-20T08:03:03;22.93;;;21.03;;
15281;SDS011;7742;44.320;19.820;2022-11-20T08:05:30;23.97;;;22.00;;
15281;SDS011;7742;44.320;19.820;2022-11-20T08:07:58;22.70;;;21.00;;
15281;SDS011;7742;44.320;19.820;2022-11-20T08:10:25;23.13;;;21.10;;
15281;SDS011;7742;44.320;19.820;2022-11-20T08:12:52;23.73;;;21.83;;
15281;SDS011;7742;44.320;19.820;2022-11-20T08:15:39;24.77;;;22.77;;
15281;SDS011;7742;44.320;19.820;2022-11-20T08:18:07;24.23;;;22.33;;
15281;SDS011;7742;44.320;19.820;2022-11-20T08:20:36;24.77;;;22.70;;
15281;SDS011;7742;44.320;19.820;2022-11-20T08:23:04;24.57;;;22.57;;
15281;SDS011;7742;44.320;19.820;2022-11-20T08:25:32;25.77;;;23.77;;
15281;SDS011;7742;44.320;19.820;2022-11-20T08:28:00;23.00;;;21.23;;
15281;SDS011;7742;44.320;19.820;2022-11-20T08:30:29;23.27;;;21.57;;
15281;SDS011;7742;44.320;19.820;2022-11-20T08:33:01;22.77;;;21.07;;
15281;SDS011;7742;44.320;19.820;2022-11-20T08:35:32;23.07;;;21.27;;
15281;SDS011;7742;44.320;19.820;2022-11-20T08:38:00;23.90;;;22.00;;
15281;SDS011;7742;44.320;19.820;2022-11-20T08:40:27;25.73;;;23.73;;
15281;SDS011;7742;44.320;19.820;2022-11-20T08:42:55;23.97;;;22.07;;
15281;SDS011;7742;44.320;19.820;2022-11-20T08:45:22;25.30;;;23.37;;
15281;SDS011;7742;44.320;19.820;2022-11-20T08:47:49;24.50;;;22.53;;
15281;SDS011;7742;44.320;19.820;2022-11-20T08:50:18;25.30;;;23.30;;
15281;SDS011;7742;44.320;19.820;2022-11-20T08:52:46;25.40;;;23.43;;
15281;SDS011;7742;44.320;19.820;2022-11-20T08:55:13;22.37;;;20.57;;
15281;SDS011;7742;44.320;19.820;2022-11-20T08:57:41;22.77;;;20.97;;
15281;SDS011;7742;44.320;19.820;2022-11-20T09:00:09;23.03;;;21.20;;
15281;SDS011;7742;44.320;19.820;2022-11-20T09:02:38;24.53;;;22.53;;
15281;SDS011;7742;44.320;19.820;2022-11-20T09:05:05;23.93;;;22.10;;
15281;SDS011;7742;44.320;19.820;2022-11-20T09:07:34;22.60;;;20.30;;
15281;SDS011;7742;44.320;19.820;2022-11-20T09:10:02;36.83;;;23.73;;
15281;SDS011;7742;44.320;19.820;2022-11-20T09:12:30;277.90;;;34.20;;
15281;SDS011;7742;44.320;19.820;2022-11-20T09:14:57;74.73;;;25.23;;
15281;SDS011;7742;44.320;19.820;2022-11-20T09:17:24;228.23;;;32.53;;
15281;SDS011;7742;44.320;19.820;2022-11-20T09:19:52;348.50;;;35.20;;
15281;SDS011;7742;44.320;19.820;2022-11-20T09:22:19;52.37;;;21.57;;
15281;SDS011;7742;44.320;19.820;2022-11-20T09:24:48;60.67;;;20.60;;
15281;SDS011;7742;44.320;19.820;2022-11-20T09:27:15;113.57;;;24.13;;
15281;SDS011;7742;44.320;19.820;2022-11-20T09:29:46;22.17;;;19.93;;
15281;SDS011;7742;44.320;19.820;2022-11-20T09:32:13;51.43;;;23.00;;
15281;SDS011;7742;44.320;19.820;2022-11-20T09:34:40;159.67;;;25.93;;
15281;SDS011;7742;44.320;19.820;2022-11-20T09:37:08;223.23;;;30.97;;
15281;SDS011;7742;44.320;19.820;2022-11-20T09:39:35;174.57;;;30.53;;
15281;SDS011;7742;44.320;19.820;2022-11-20T09:42:16;271.93;;;34.73;;
15281;SDS011;7742;44.320;19.820;2022-11-20T09:45:01;112.00;;;26.90;;
15281;SDS011;7742;44.320;19.820;2022-11-20T09:47:37;325.30;;;34.97;;
15281;SDS011;7742;44.320;19.820;2022-11-20T09:50:24;92.17;;;28.20;;
15281;SDS011;7742;44.320;19.820;2022-11-20T09:52:58;98.13;;;25.70;;
15281;SDS011;7742;44.320;19.820;2022-11-20T09:55:38;212.53;;;29.80;;
15281;SDS011;7742;44.320;19.820;2022-11-20T09:58:07;545.87;;;46.87;;
15281;SDS011;7742;44.320;19.820;2022-11-20T10:00:41;361.43;;;40.23;;
15281;SDS011;7742;44.320;19.820;2022-11-20T10:03:11;38.70;;;23.30;;
15281;SDS011;7742;44.320;19.820;2022-11-20T10:05:42;33.17;;;20.50;;
15281;SDS011;7742;44.320;19.820;2022-11-20T10:08:14;93.53;;;25.33;;
15281;SDS011;7742;44.320;19.820;2022-11-20T10:10:44;53.40;;;21.30;;
15281;SDS011;7742;44.320;19.820;2022-11-20T10:13:18;49.87;;;19.93;;
15281;SDS011;7742;44.320;19.820;2022-11-20T10:15:53;483.07;;;44.13;;
15281;SDS011;7742;44.320;19.820;2022-11-20T10:18:29;56.00;;;23.07;;
15281;SDS011;7742;44.320;19.820;2022-11-20T10:21:05;73.73;;;24.60;;
15281;SDS011;7742;44.320;19.820;2022-11-20T10:23:44;73.87;;;24.63;;
15281;SDS011;7742;44.320;19.820;2022-11-20T10:26:21;24.73;;;20.97;;
15281;SDS011;7742;44.320;19.820;2022-11-20T10:28:56;23.60;;;20.50;;
15281;SDS011;7742;44.320;19.820;2022-11-20T10:31:31;20.40;;;18.97;;
15281;SDS011;7742;44.320;19.820;2022-11-20T10:34:00;20.97;;;19.37;;
15281;SDS011;7742;44.320;19.820;2022-11-20T10:36:33;21.37;;;19.77;;
15281;SDS011;7742;44.320;19.820;2022-11-20T10:39:04;21.23;;;19.63;;
15281;SDS011;7742;44.320;19.820;2022-11-20T10:41:34;20.37;;;18.97;;
15281;SDS011;7742;44.320;19.820;2022-11-20T10:44:09;21.17;;;19.37;;
15281;SDS011;7742;44.320;19.820;2022-11-20T10:47:01;22.17;;;20.47;;
15281;SDS011;7742;44.320;19.820;2022-11-20T10:49:29;21.83;;;20.13;;
15281;SDS011;7742;44.320;19.820;2022-11-20T10:51:59;24.10;;;22.37;;
15281;SDS011;7742;44.320;19.820;2022-11-20T10:54:35;21.73;;;20.13;;
15281;SDS011;7742;44.320;19.820;2022-11-20T10:57:07;23.97;;;21.97;;
15281;SDS011;7742;44.320;19.820;2022-11-20T10:59:48;21.17;;;19.77;;
15281;SDS011;7742;44.320;19.820;2022-11-20T11:02:23;19.07;;;17.70;;
15281;SDS011;7742;44.320;19.820;2022-11-20T11:04:57;21.87;;;20.30;;
15281;SDS011;7742;44.320;19.820;2022-11-20T11:07:26;20.83;;;19.53;;
15281;SDS011;7742;44.320;19.820;2022-11-20T11:09:57;21.80;;;20.30;;
15281;SDS011;7742;44.320;19.820;2022-11-20T11:12:25;21.27;;;19.87;;
15281;SDS011;7742;44.320;19.820;2022-11-20T11:14:55;22.10;;;20.73;;
15281;SDS011;7742;44.320;19.820;2022-11-20T11:17:24;23.27;;;21.60;;
15281;SDS011;7742;44.320;19.820;2022-11-20T11:20:00;21.50;;;20.10;;
15281;SDS011;7742;44.320;19.820;2022-11-20T11:22:31;22.70;;;21.00;;
15281;SDS011;7742;44.320;19.820;2022-11-20T11:25:00;21.77;;;20.27;;
15281;SDS011;7742;44.320;19.820;2022-11-20T11:27:27;21.87;;;19.57;;
15281;SDS011;7742;44.320;19.820;2022-11-20T11:30:03;23.60;;;21.90;;
15281;SDS011;7742;44.320;19.820;2022-11-20T11:32:39;22.93;;;20.97;;
15281;SDS011;7742;44.320;19.820;2022-11-20T11:35:11;23.30;;;21.43;;
15281;SDS011;7742;44.320;19.820;2022-11-20T11:37:46;40.20;;;23.43;;
15281;SDS011;7742;44.320;19.820;2022-11-20T11:40:14;24.30;;;22.03;;
15281;SDS011;7742;44.320;19.820;2022-11-20T11:42:42;23.43;;;21.73;;
15281;SDS011;7742;44.320;19.820;2022-11-20T11:45:13;25.00;;;23.23;;
15281;SDS011;7742;44.320;19.820;2022-11-20T11:47:43;26.90;;;24.90;;
15281;SDS011;7742;44.320;19.820;2022-11-20T11:50:16;29.40;;;27.30;;
15281;SDS011;7742;44.320;19.820;2022-11-20T11:52:46;24.87;;;23.07;;
15281;SDS011;7742;44.320;19.820;2022-11-20T11:55:20;25.30;;;23.40;;
15281;SDS011;7742;44.320;19.820;2022-11-20T11:57:57;27.60;;;25.63;;
15281;SDS011;7742;44.320;19.820;2022-11-20T12:00:32;25.50;;;23.80;;
15281;SDS011;7742;44.320;19.820;2022-11-20T12:03:03;25.27;;;23.57;;
15281;SDS011;7742;44.320;19.820;2022-11-20T12:05:36;25.10;;;23.10;;
15281;SDS011;7742;44.320;19.820;2022-11-20T12:08:10;27.23;;;25.13;;
15281;SDS011;7742;44.320;19.820;2022-11-20T12:10:43;25.67;;;23.97;;
15281;SDS011;7742;44.320;19.820;2022-11-20T12:13:18;24.80;;;23.10;;
15281;SDS011;7742;44.320;19.820;2022-11-20T12:15:51;23.70;;;22.07;;
15281;SDS011;7742;44.320;19.820;2022-11-20T12:18:19;23.17;;;21.47;;
15281;SDS011;7742;44.320;19.820;2022-11-20T12:20:50;23.27;;;21.70;;
15281;SDS011;7742;44.320;19.820;2022-11-20T12:23:22;22.10;;;20.50;;
15281;SDS011;7742;44.320;19.820;2022-11-20T12:25:53;23.20;;;21.60;;
15281;SDS011;7742;44.320;19.820;2022-11-20T12:28:24;28.00;;;26.13;;
15281;SDS011;7742;44.320;19.820;2022-11-20T12:33:54;22.17;;;20.77;;
15281;SDS011;7742;44.320;19.820;2022-11-20T12:36:30;24.77;;;23.07;;
15281;SDS011;7742;44.320;19.820;2022-11-20T12:39:02;24.00;;;22.50;;
15281;SDS011;7742;44.320;19.820;2022-11-20T12:41:40;24.63;;;23.03;;
15281;SDS011;7742;44.320;19.820;2022-11-20T12:44:36;23.67;;;22.10;;
15281;SDS011;7742;44.320;19.820;2022-11-20T12:47:51;23.27;;;21.77;;
15281;SDS011;7742;44.320;19.820;2022-11-20T12:50:28;23.17;;;21.67;;
15281;SDS011;7742;44.320;19.820;2022-11-20T12:53:03;23.50;;;21.97;;
15281;SDS011;7742;44.320;19.820;2022-11-20T12:55:36;25.20;;;23.50;;
15281;SDS011;7742;44.320;19.820;2022-11-20T12:58:11;24.90;;;23.30;;
15281;SDS011;7742;44.320;19.820;2022-11-20T13:00:43;22.63;;;21.03;;
15281;SDS011;7742;44.320;19.820;2022-11-20T13:03:25;23.93;;;22.23;;
15281;SDS011;7742;44.320;19.820;2022-11-20T13:05:59;25.13;;;23.43;;
15281;SDS011;7742;44.320;19.820;2022-11-20T13:08:33;22.27;;;20.83;;
15281;SDS011;7742;44.320;19.820;2022-11-20T13:11:03;25.83;;;24.13;;
15281;SDS011;7742;44.320;19.820;2022-11-20T13:13:40;26.20;;;24.50;;
15281;SDS011;7742;44.320;19.820;2022-11-20T13:16:28;24.17;;;22.57;;
15281;SDS011;7742;44.320;19.820;2022-11-20T13:19:02;22.23;;;20.63;;
15281;SDS011;7742;44.320;19.820;2022-11-20T13:21:37;24.00;;;22.40;;
15281;SDS011;7742;44.320;19.820;2022-11-20T13:24:06;25.80;;;24.03;;
15281;SDS011;7742;44.320;19.820;2022-11-20T13:26:34;24.87;;;23.27;;
15281;SDS011;7742;44.320;19.820;2022-11-20T13:29:02;26.40;;;24.80;;
15281;SDS011;7742;44.320;19.820;2022-11-20T13:31:35;25.53;;;23.83;;
15281;SDS011;7742;44.320;19.820;2022-11-20T13:34:05;26.80;;;25.00;;
15281;SDS011;7742;44.320;19.820;2022-11-20T13:36:33;25.07;;;23.27;;
15281;SDS011;7742;44.320;19.820;2022-11-20T13:39:01;24.83;;;23.20;;
15281;SDS011;7742;44.320;19.820;2022-11-20T13:41:30;23.80;;;22.10;;
15281;SDS011;7742;44.320;19.820;2022-11-20T13:44:05;23.97;;;22.37;;
15281;SDS011;7742;44.320;19.820;2022-11-20T13:46:38;23.23;;;21.70;;
15281;SDS011;7742;44.320;19.820;2022-11-20T13:49:16;21.83;;;20.30;;
15281;SDS011;7742;44.320;19.820;2022-11-20T13:51:47;24.50;;;22.80;;
15281;SDS011;7742;44.320;19.820;2022-11-20T13:57:39;24.17;;;22.47;;
15281;SDS011;7742;44.320;19.820;2022-11-20T14:00:27;24.70;;;23.00;;
15281;SDS011;7742;44.320;19.820;2022-11-20T14:03:07;23.33;;;21.73;;
15281;SDS011;7742;44.320;19.820;2022-11-20T14:05:39;23.43;;;21.83;;
15281;SDS011;7742;44.320;19.820;2022-11-20T14:08:12;25.80;;;23.90;;
15281;SDS011;7742;44.320;19.820;2022-11-20T14:10:44;24.43;;;22.83;;
15281;SDS011;7742;44.320;19.820;2022-11-20T14:13:15;26.47;;;24.57;;
15281;SDS011;7742;44.320;19.820;2022-11-20T14:15:45;24.50;;;22.67;;
15281;SDS011;7742;44.320;19.820;2022-11-20T14:18:13;25.93;;;24.17;;
15281;SDS011;7742;44.320;19.820;2022-11-20T14:20:43;26.03;;;24.33;;
15281;SDS011;7742;44.320;19.820;2022-11-20T14:23:11;25.87;;;24.07;;
15281;SDS011;7742;44.320;19.820;2022-11-20T14:25:42;26.43;;;24.33;;
15281;SDS011;7742;44.320;19.820;2022-11-20T14:28:10;25.60;;;23.80;;
15281;SDS011;7742;44.320;19.820;2022-11-20T14:30:44;26.40;;;24.50;;
15281;SDS011;7742;44.320;19.820;2022-11-20T14:33:14;26.63;;;24.63;;
15281;SDS011;7742;44.320;19.820;2022-11-20T14:35:44;27.33;;;25.43;;
15281;SDS011;7742;44.320;19.820;2022-11-20T14:38:13;27.63;;;25.43;;
15281;SDS011;7742;44.320;19.820;2022-11-20T14:40:42;29.73;;;27.63;;
15281;SDS011;7742;44.320;19.820;2022-11-20T14:43:17;28.97;;;26.90;;
15281;SDS011;7742;44.320;19.820;2022-11-20T14:45:47;29.77;;;27.67;;
15281;SDS011;7742;44.320;19.820;2022-11-20T14:48:18;30.93;;;28.53;;
15281;SDS011;7742;44.320;19.820;2022-11-20T14:50:57;31.20;;;28.93;;
15281;SDS011;7742;44.320;19.820;2022-11-20T14:53:24;30.30;;;28.10;;
15281;SDS011;7742;44.320;19.820;2022-11-20T14:55:55;30.93;;;28.77;;